International Virtual Aviation Organisation

Russian Federation and Kazakhstan MCD

 
URMM 192230Z VRB01MPS 9999 NSC M08/M11 Q1026 R30/090070 NOSIG RMK QFE741/0988
QNH:(hPa/inHg/mmHg)1026 / 30.3 / 770
QFE:(hPa/inHg/mmHg)987 / 29.15 / 740
Temperature-8
Dew Point-11
Visibility> 10000
Weather
Cloud Cover
Transition Height900 m./4000 ft.
Transition LevelFL50
SQUAWK